createdAt,value
2019-05-25T00:02:02.760Z,94395.62
2019-05-25T00:04:37.159Z,94396.09
2019-05-25T00:07:10.334Z,94394.20
2019-05-25T00:09:48.208Z,94391.89
2019-05-25T00:12:20.549Z,94397.25
2019-05-25T00:14:53.577Z,94394.88
2019-05-25T00:17:27.081Z,94399.73
2019-05-25T00:20:00.133Z,94400.83
2019-05-25T00:22:33.039Z,94398.52
2019-05-25T00:25:06.107Z,94400.15
2019-05-25T00:27:39.293Z,94401.43
2019-05-25T00:30:13.026Z,94398.45
2019-05-25T00:32:46.217Z,94402.81
2019-05-25T00:35:19.315Z,94401.18
2019-05-25T00:37:52.364Z,94401.88
2019-05-25T00:40:25.303Z,94403.28
2019-05-25T00:42:58.416Z,94409.05
2019-05-25T00:45:31.585Z,94409.69
2019-05-25T00:48:04.827Z,94412.11
2019-05-25T00:50:37.806Z,94410.94
2019-05-25T00:53:10.498Z,94411.55
2019-05-25T00:55:43.948Z,94408.07
2019-05-25T00:58:16.961Z,94409.06
2019-05-25T01:00:49.999Z,94405.48
2019-05-25T01:03:24.313Z,94405.05
2019-05-25T01:05:57.245Z,94405.90
2019-05-25T01:08:31.594Z,94400.13
2019-05-25T01:11:04.553Z,94409.62
2019-05-25T01:13:37.757Z,94406.30
2019-05-25T01:16:11.640Z,94406.98
2019-05-25T01:18:44.647Z,94404.88
2019-05-25T01:21:17.658Z,94400.62
2019-05-25T01:23:51.054Z,94402.92
2019-05-25T01:26:25.501Z,94407.18
2019-05-25T01:28:58.507Z,94407.55
2019-05-25T01:31:31.584Z,94408.42
2019-05-25T01:34:04.582Z,94403.59
2019-05-25T01:36:37.743Z,94399.31
2019-05-25T01:39:11.009Z,94397.09
2019-05-25T01:41:44.094Z,94400.20
2019-05-25T01:44:17.107Z,94400.39
2019-05-25T01:46:50.075Z,94395.73
2019-05-25T01:49:23.123Z,94406.77
2019-05-25T01:51:56.356Z,94400.45
2019-05-25T01:54:29.306Z,94390.77
2019-05-25T01:57:02.457Z,94396.41
2019-05-25T01:59:35.382Z,94396.09
2019-05-25T02:02:08.439Z,94399.58
2019-05-25T02:04:41.669Z,94402.09
2019-05-25T02:07:14.604Z,94404.78
2019-05-25T02:09:48.786Z,94404.50
2019-05-25T02:12:21.768Z,94399.30
2019-05-25T02:14:54.898Z,94399.99
2019-05-25T02:17:27.675Z,94403.03
2019-05-25T02:20:00.625Z,94406.52
2019-05-25T02:22:33.917Z,94407.87
2019-05-25T02:25:17.632Z,94404.06
2019-05-25T02:27:42.859Z,94403.03
2019-05-25T02:30:16.488Z,94399.34
2019-05-25T02:32:50.596Z,94399.52
2019-05-25T02:35:29.833Z,94398.84
2019-05-25T02:38:02.940Z,94400.35
2019-05-25T02:40:35.788Z,94392.23
2019-05-25T02:43:08.997Z,94401.13
2019-05-25T02:45:42.156Z,94401.95
2019-05-25T02:48:15.283Z,94403.89
2019-05-25T02:50:48.432Z,94414.53
2019-05-25T02:53:21.549Z,94412.72
2019-05-25T02:55:55.602Z,94416.72
2019-05-25T02:58:28.482Z,94420.79
2019-05-25T03:01:01.470Z,94422.30
2019-05-25T03:06:10.470Z,94427.37
2019-05-25T03:08:45.864Z,94422.09
2019-05-25T03:11:20.474Z,94436.07
2019-05-25T03:13:53.852Z,94435.54
2019-05-25T03:16:26.815Z,94434.97
2019-05-25T03:19:00.073Z,94433.48
2019-05-25T03:21:34.119Z,94431.57
2019-05-25T03:24:08.229Z,94436.48
2019-05-25T03:26:41.319Z,94438.27
2019-05-25T03:29:14.184Z,94438.59
2019-05-25T03:31:47.328Z,94441.64
2019-05-25T03:34:20.368Z,94440.24
2019-05-25T03:36:53.329Z,94437.13
2019-05-25T03:39:26.233Z,94435.13
2019-05-25T03:41:59.034Z,94441.69
2019-05-25T03:44:32.058Z,94438.34
2019-05-25T03:47:05.081Z,94436.70
2019-05-25T03:49:37.873Z,94436.34
2019-05-25T03:52:10.616Z,94444.98
2019-05-25T03:54:43.562Z,94447.66
2019-05-25T03:57:16.695Z,94447.38
2019-05-25T03:59:49.454Z,94445.57
2019-05-25T04:02:22.538Z,94451.62
2019-05-25T04:04:55.726Z,94450.34
2019-05-25T04:07:28.452Z,94449.21
2019-05-25T04:10:01.487Z,94452.03
2019-05-25T04:12:34.703Z,94454.52
2019-05-25T04:15:08.641Z,94454.00
2019-05-25T04:17:41.528Z,94453.03
2019-05-25T04:20:14.419Z,94452.37
2019-05-25T04:22:47.591Z,94449.80
2019-05-25T04:25:22.016Z,94449.95
2019-05-25T04:27:54.984Z,94455.72
2019-05-25T04:30:27.956Z,94454.20
2019-05-25T04:33:01.067Z,94459.02
2019-05-25T04:35:34.003Z,94456.55
2019-05-25T04:38:07.372Z,94463.55
2019-05-25T04:40:40.260Z,94464.91
2019-05-25T04:43:13.722Z,94464.31
2019-05-25T04:45:46.877Z,94460.17
2019-05-25T04:48:20.391Z,94464.84
2019-05-25T04:50:53.358Z,94468.19
2019-05-25T04:53:27.729Z,94471.55
2019-05-25T04:56:01.197Z,94466.48
2019-05-25T04:58:35.187Z,94468.66
2019-05-25T05:01:08.602Z,94466.31
2019-05-25T05:03:42.342Z,94459.37
2019-05-25T05:06:15.542Z,94456.34
2019-05-25T05:08:49.944Z,94462.83
2019-05-25T05:11:23.209Z,94470.16
2019-05-25T05:13:56.362Z,94464.63
2019-05-25T05:16:29.340Z,94474.92
2019-05-25T05:19:03.600Z,94477.70
2019-05-25T05:21:36.569Z,94474.15
2019-05-25T05:24:09.669Z,94473.64
2019-05-25T05:26:55.282Z,94472.59
2019-05-25T05:29:17.669Z,94478.44
2019-05-25T05:31:50.793Z,94480.92
2019-05-25T05:34:23.918Z,94477.29
2019-05-25T05:36:58.109Z,94482.28
2019-05-25T05:39:31.780Z,94489.25
2019-05-25T05:42:07.557Z,94491.11
2019-05-25T05:44:44.749Z,94493.72
2019-05-25T05:47:20.918Z,94493.05
2019-05-25T05:49:55.993Z,94498.72
2019-05-25T05:52:33.512Z,94499.58
2019-05-25T05:55:08.663Z,94498.70
2019-05-25T05:57:42.059Z,94495.45
2019-05-25T06:00:15.232Z,94495.30
2019-05-25T06:02:48.755Z,94507.84
2019-05-25T06:05:22.199Z,94519.95
2019-05-25T06:07:55.280Z,94518.94
2019-05-25T06:10:28.797Z,94521.55
2019-05-25T06:13:01.882Z,94517.31
2019-05-25T06:15:35.463Z,94515.55
2019-05-25T06:18:08.698Z,94515.80
2019-05-25T06:20:41.944Z,94513.78
2019-05-25T06:23:15.203Z,94510.97
2019-05-25T06:25:48.473Z,94512.73
2019-05-25T06:28:22.589Z,94515.02
2019-05-25T06:30:55.807Z,94517.65
2019-05-25T06:33:28.837Z,94516.14
2019-05-25T06:36:01.867Z,94513.79
2019-05-25T06:38:34.938Z,94519.67
2019-05-25T06:41:08.907Z,94520.25
2019-05-25T06:43:42.169Z,94527.03
2019-05-25T06:46:15.485Z,94516.34
2019-05-25T06:48:51.429Z,94518.31
2019-05-25T06:51:24.277Z,94515.45
2019-05-25T06:53:57.311Z,94518.09
2019-05-25T06:56:30.862Z,94512.19
2019-05-25T06:59:03.907Z,94521.75
2019-05-25T07:01:37.046Z,94511.89
2019-05-25T07:04:10.341Z,94513.42
2019-05-25T07:06:44.665Z,94515.11
2019-05-25T07:09:17.626Z,94509.14
2019-05-25T07:11:50.748Z,94519.17
2019-05-25T07:14:23.786Z,94517.77
2019-05-25T07:16:56.864Z,94517.11
2019-05-25T07:19:29.892Z,94523.27
2019-05-25T07:22:03.228Z,94523.94
2019-05-25T07:24:36.079Z,94525.03
2019-05-25T07:27:09.196Z,94527.83
2019-05-25T07:29:42.093Z,94527.45
2019-05-25T07:32:15.327Z,94525.35
2019-05-25T07:34:48.547Z,94519.24
2019-05-25T07:37:22.547Z,94526.33
2019-05-25T07:39:55.843Z,94533.55
2019-05-25T07:42:29.050Z,94536.00
2019-05-25T07:45:02.129Z,94532.35
2019-05-25T07:47:35.160Z,94531.20
2019-05-25T07:50:09.242Z,94529.09
2019-05-25T07:52:42.398Z,94532.88
2019-05-25T07:55:15.527Z,94532.65
2019-05-25T07:57:48.832Z,94532.52
2019-05-25T08:00:21.842Z,94536.14
2019-05-25T08:02:54.772Z,94543.19
2019-05-25T08:05:28.082Z,94544.11
2019-05-25T08:08:01.507Z,94543.50
2019-05-25T08:10:34.777Z,94546.98
2019-05-25T08:13:08.009Z,94549.22
2019-05-25T08:15:40.815Z,94549.00
2019-05-25T08:18:14.467Z,94552.47
2019-05-25T08:20:47.653Z,94555.89
2019-05-25T08:23:20.888Z,94557.58
2019-05-25T08:25:54.146Z,94555.02
2019-05-25T08:28:32.612Z,94554.75
2019-05-25T08:31:02.026Z,94562.98
2019-05-25T08:33:35.279Z,94558.79
2019-05-25T08:36:08.126Z,94560.50
2019-05-25T08:38:41.461Z,94559.23
2019-05-25T08:41:14.827Z,94555.65
2019-05-25T08:43:48.666Z,94554.89
2019-05-25T08:46:21.483Z,94552.13
2019-05-25T08:48:55.151Z,94555.19
2019-05-25T08:51:28.300Z,94557.06
2019-05-25T08:54:01.535Z,94558.76
2019-05-25T08:56:35.559Z,94557.13
2019-05-25T08:59:08.541Z,94553.89
2019-05-25T09:01:42.035Z,94561.25
2019-05-25T09:04:15.641Z,94566.42
2019-05-25T09:06:49.014Z,94566.30
2019-05-25T09:09:22.089Z,94559.60
2019-05-25T09:11:55.125Z,94561.64
2019-05-25T09:14:28.609Z,94559.09
2019-05-25T09:17:02.081Z,94556.89
2019-05-25T09:19:36.909Z,94565.16
2019-05-25T09:22:09.895Z,94562.80
2019-05-25T09:24:42.962Z,94565.55
2019-05-25T09:27:17.505Z,94571.84
2019-05-25T09:29:50.074Z,94573.20
2019-05-25T09:32:23.131Z,94580.50
2019-05-25T09:34:56.370Z,94584.30
2019-05-25T09:37:29.606Z,94588.64
2019-05-25T09:40:04.610Z,94583.16
2019-05-25T11:49:40.269Z,94564.38
2019-05-25T11:52:13.481Z,94557.11
2019-05-25T11:54:46.672Z,94552.77
2019-05-25T11:57:20.060Z,94551.27
2019-05-25T11:59:53.073Z,94550.46
2019-05-25T12:02:26.018Z,94550.30
2019-05-25T12:04:59.089Z,94549.75
2019-05-25T12:07:32.866Z,94553.17
2019-05-25T12:10:07.330Z,94552.92
2019-05-25T12:12:40.533Z,94553.39
2019-05-25T12:15:14.959Z,94550.29
2019-05-25T12:17:48.180Z,94557.75
2019-05-25T12:20:22.456Z,94556.69
2019-05-25T12:22:55.732Z,94553.80
2019-05-25T12:25:28.977Z,94550.47
2019-05-25T12:28:02.405Z,94547.23
2019-05-25T12:30:40.697Z,94550.30
2019-05-25T12:33:10.578Z,94543.71
2019-05-25T12:35:45.362Z,94542.94
2019-05-25T12:38:18.412Z,94538.44
2019-05-25T12:40:53.931Z,94539.45
2019-05-25T12:43:27.489Z,94534.27
2019-05-25T12:46:00.886Z,94538.52
2019-05-25T12:48:34.105Z,94535.85
2019-05-25T12:51:07.660Z,94537.33
2019-05-25T12:53:40.786Z,94535.35
2019-05-25T12:56:14.075Z,94535.53
2019-05-25T12:58:50.010Z,94533.64
2019-05-25T13:01:21.798Z,94538.61
2019-05-25T13:03:55.125Z,94536.59
2019-05-25T13:06:28.017Z,94534.15
2019-05-25T13:09:10.897Z,94530.85
2019-05-25T13:11:44.470Z,94534.39
2019-05-25T13:14:19.670Z,94531.84
2019-05-25T13:16:52.874Z,94533.20
2019-05-25T13:19:25.645Z,94523.52
2019-05-25T13:21:58.905Z,94522.97
2019-05-25T13:24:32.053Z,94530.17
2019-05-25T13:27:05.146Z,94526.57
2019-05-25T13:29:38.422Z,94521.05
2019-05-25T13:32:13.986Z,94528.01
2019-05-25T13:34:46.688Z,94536.96
2019-05-25T13:37:19.746Z,94524.25
2019-05-25T13:39:52.913Z,94521.34
2019-05-25T13:42:27.064Z,94518.21
2019-05-25T13:45:00.587Z,94510.57
2019-05-25T13:47:34.262Z,94515.95
2019-05-25T13:50:08.470Z,94515.44
2019-05-25T13:52:41.526Z,94517.23
2019-05-25T13:55:18.298Z,94521.70
2019-05-25T13:57:51.333Z,94511.50
2019-05-25T14:00:24.993Z,94516.92
2019-05-25T14:02:58.882Z,94514.28
2019-05-25T14:05:32.346Z,94513.10
2019-05-25T14:08:05.632Z,94514.88
2019-05-25T14:10:39.160Z,94515.11
2019-05-25T14:13:12.685Z,94512.30
2019-05-25T14:15:45.750Z,94512.75
2019-05-25T14:18:18.828Z,94518.63
2019-05-25T14:20:51.896Z,94517.21
2019-05-25T14:23:25.172Z,94513.82
2019-05-25T14:25:59.472Z,94512.55
2019-05-25T14:28:32.750Z,94514.43
2019-05-25T14:31:05.693Z,94516.23
2019-05-25T14:33:38.831Z,94514.79
2019-05-25T14:36:12.158Z,94517.58
2019-05-25T14:38:45.944Z,94516.90
2019-05-25T14:41:19.251Z,94520.05
2019-05-25T14:43:52.758Z,94519.38
2019-05-25T14:46:28.179Z,94517.80
2019-05-25T14:49:00.881Z,94520.72
2019-05-25T14:51:34.065Z,94518.20
2019-05-25T14:54:07.773Z,94523.55
2019-05-25T14:56:41.038Z,94520.80
2019-05-25T14:59:14.683Z,94519.53
2019-05-25T15:02:01.341Z,94518.76
2019-05-25T15:04:24.096Z,94510.34
2019-05-25T15:06:57.776Z,94514.81
2019-05-25T15:09:30.942Z,94520.75
2019-05-25T15:12:04.915Z,94510.84
2019-05-25T15:14:38.476Z,94515.19
2019-05-25T15:17:14.450Z,94512.98
2019-05-25T15:19:48.836Z,94513.92
2019-05-25T15:22:22.289Z,94512.30
2019-05-25T15:24:55.763Z,94517.08
2019-05-25T15:27:29.051Z,94515.11
2019-05-25T15:30:02.538Z,94514.39
2019-05-25T15:32:35.746Z,94511.20
2019-05-25T15:35:11.298Z,94512.63
2019-05-25T15:37:44.671Z,94521.28
2019-05-25T15:40:18.846Z,94517.86
2019-05-25T15:42:52.166Z,94521.16
2019-05-25T15:45:25.456Z,94525.44
2019-05-25T15:47:58.780Z,94525.05
2019-05-25T15:50:32.490Z,94530.11
2019-05-25T15:53:05.951Z,94531.44
2019-05-25T15:55:39.191Z,94533.35
2019-05-25T15:58:12.643Z,94533.42
2019-05-25T16:00:50.932Z,94529.92
2019-05-25T16:03:24.934Z,94535.63
2019-05-25T16:05:59.833Z,94534.21
2019-05-25T16:08:40.304Z,94530.06
2019-05-25T16:11:14.394Z,94533.37
2019-05-25T16:13:47.533Z,94537.16
2019-05-25T16:16:29.557Z,94541.06
2019-05-25T16:18:58.986Z,94540.27
2019-05-25T16:21:34.578Z,94544.59
2019-05-25T16:24:08.422Z,94544.40
2019-05-25T16:26:45.857Z,94545.00
2019-05-25T16:29:17.132Z,94548.06
2019-05-25T16:31:50.285Z,94545.87
2019-05-25T16:34:23.329Z,94544.83
2019-05-25T16:36:56.859Z,94546.25
2019-05-25T16:39:30.201Z,94554.77
2019-05-25T16:42:03.860Z,94556.33
2019-05-25T16:44:37.574Z,94557.59
2019-05-25T16:47:12.865Z,94561.80
2019-05-25T16:49:46.619Z,94561.41
2019-05-25T16:52:19.886Z,94554.78
2019-05-25T16:54:53.291Z,94559.09
2019-05-25T16:57:31.309Z,94559.31
2019-05-25T17:00:05.167Z,94552.56
2019-05-25T17:02:39.131Z,94557.73
2019-05-25T17:05:14.932Z,94562.25
2019-05-25T17:07:48.472Z,94561.66
2019-05-25T17:10:22.275Z,94568.33
2019-05-25T17:12:55.778Z,94571.61
2019-05-25T17:15:28.888Z,94580.05
2019-05-25T17:18:04.740Z,94575.97
2019-05-25T17:20:38.058Z,94575.48
2019-05-25T17:23:11.679Z,94579.84
2019-05-25T17:25:45.535Z,94572.44
2019-05-25T17:28:18.896Z,94577.52
2019-05-25T17:30:52.661Z,94577.81
2019-05-25T17:33:26.167Z,94576.33
2019-05-25T17:36:00.969Z,94584.39
2019-05-25T17:38:34.177Z,94580.06
2019-05-25T17:41:07.833Z,94581.93
2019-05-25T17:43:41.443Z,94584.89
2019-05-25T17:46:16.062Z,94592.08
2019-05-25T17:48:49.803Z,94598.64
2019-05-25T17:51:24.612Z,94594.87
2019-05-25T17:53:57.918Z,94594.79
2019-05-25T17:56:32.898Z,94592.62
2019-05-25T17:59:11.453Z,94600.01
2019-05-25T18:01:44.661Z,94601.47
2019-05-25T18:04:18.675Z,94599.10
2019-05-25T18:06:54.435Z,94602.52
2019-05-25T18:09:28.311Z,94608.75
2019-05-25T18:12:05.336Z,94606.95
2019-05-25T18:14:38.942Z,94614.49
2019-05-25T18:17:12.125Z,94612.49
2019-05-25T18:19:45.870Z,94609.07
2019-05-25T18:22:19.366Z,94617.44
2019-05-25T18:24:53.696Z,94616.88
2019-05-25T18:27:27.275Z,94630.89
2019-05-25T18:30:00.711Z,94634.69
2019-05-25T18:32:37.123Z,94630.84
2019-05-25T18:35:10.917Z,94637.89
2019-05-25T18:37:44.498Z,94639.06
2019-05-25T18:40:20.233Z,94645.55
2019-05-25T18:42:53.648Z,94646.33
2019-05-25T18:45:27.055Z,94654.47
2019-05-25T18:48:00.711Z,94661.22
2019-05-25T18:50:34.209Z,94663.03
2019-05-25T18:53:08.921Z,94669.30
2019-05-25T18:55:42.349Z,94668.55
2019-05-25T19:01:17.254Z,94683.03
2019-05-25T19:03:50.776Z,94680.56
2019-05-25T19:06:30.885Z,94677.28
2019-05-25T19:09:04.526Z,94677.62
2019-05-25T19:11:38.250Z,94678.27
2019-05-25T19:14:12.320Z,94685.19
2019-05-25T19:16:50.073Z,94681.34
2019-05-25T19:19:23.474Z,94689.52
2019-05-25T19:21:57.069Z,94690.09
2019-05-25T19:24:30.554Z,94687.87
2019-05-25T19:27:04.331Z,94691.64
2019-05-25T19:29:38.042Z,94703.79
2019-05-25T19:32:14.398Z,94692.52
2019-05-25T19:34:59.071Z,94698.09
2019-05-25T19:37:23.403Z,94702.00
2019-05-25T19:39:57.286Z,94711.20
2019-05-25T19:42:30.664Z,94708.56
2019-05-25T19:45:04.428Z,94717.26
2019-05-25T19:47:41.250Z,94715.70
2019-05-25T19:50:14.893Z,94711.64
2019-05-25T19:52:48.333Z,94711.17
2019-05-25T19:55:21.981Z,94715.64
2019-05-25T19:57:56.009Z,94713.48
2019-05-25T20:00:29.866Z,94714.52
2019-05-25T20:03:04.942Z,94719.52
2019-05-25T20:05:37.842Z,94723.59
2019-05-25T20:08:11.561Z,94724.50
2019-05-25T20:10:44.893Z,94718.32
2019-05-25T20:13:18.281Z,94732.08
2019-05-25T20:15:51.460Z,94735.59
2019-05-25T20:18:25.020Z,94734.13
2019-05-25T20:20:57.996Z,94734.35
2019-05-25T20:23:31.495Z,94739.06
2019-05-25T20:26:04.583Z,94745.16
2019-05-25T20:28:38.224Z,94747.44
2019-05-25T20:31:11.679Z,94751.33
2019-05-25T20:33:45.847Z,94745.98
2019-05-25T20:36:19.396Z,94746.14
2019-05-25T20:38:53.559Z,94742.83
2019-05-25T20:41:26.811Z,94735.17
2019-05-25T20:44:00.403Z,94744.66
2019-05-25T20:46:33.556Z,94746.94
2019-05-25T20:49:07.033Z,94742.34
2019-05-25T20:51:40.410Z,94741.92
2019-05-25T20:54:14.247Z,94743.65
2019-05-25T20:56:47.527Z,94740.67
2019-05-25T20:59:20.859Z,94744.75
2019-05-25T21:01:54.059Z,94747.58
2019-05-25T21:04:27.467Z,94758.22
2019-05-25T21:07:00.839Z,94759.78
2019-05-25T21:09:36.351Z,94760.38
2019-05-25T21:12:09.551Z,94756.38
2019-05-25T21:14:42.952Z,94765.43
2019-05-25T21:17:16.371Z,94766.52
2019-05-25T21:19:49.762Z,94761.32
2019-05-25T21:22:23.030Z,94759.84
2019-05-25T21:24:56.083Z,94767.09
2019-05-25T21:27:29.328Z,94762.95
2019-05-25T21:30:02.542Z,94760.33
2019-05-25T21:32:36.174Z,94764.92
2019-05-25T21:35:09.791Z,94770.78
2019-05-25T21:37:43.134Z,94771.17
2019-05-25T21:40:17.415Z,94763.86
2019-05-25T21:42:50.299Z,94764.77
2019-05-25T21:45:23.393Z,94768.97
2019-05-25T21:47:56.824Z,94772.47
2019-05-25T21:50:31.018Z,94770.77
2019-05-25T21:53:04.245Z,94768.78
2019-05-25T21:55:37.317Z,94766.63
2019-05-25T21:58:11.171Z,94770.66
2019-05-25T22:00:44.365Z,94771.81
2019-05-25T22:03:17.491Z,94775.17
2019-05-25T22:05:50.538Z,94778.09
2019-05-25T22:08:23.661Z,94781.67
2019-05-25T22:10:57.306Z,94776.84
2019-05-25T22:13:30.295Z,94778.78
2019-05-25T22:16:04.311Z,94782.00
2019-05-25T22:18:37.247Z,94776.50
2019-05-25T22:21:10.506Z,94784.66
2019-05-25T22:23:43.765Z,94783.50
2019-05-25T22:26:16.630Z,94786.20
2019-05-25T22:28:50.155Z,94784.42
2019-05-25T22:31:24.034Z,94786.08
2019-05-25T22:33:59.398Z,94779.75
2019-05-25T22:36:40.487Z,94780.85
2019-05-25T22:39:08.637Z,94785.07
2019-05-25T22:41:41.789Z,94767.89
2019-05-25T22:44:14.737Z,94776.55
2019-05-25T22:46:47.938Z,94772.97
2019-05-25T22:49:21.425Z,94771.26
2019-05-25T22:51:54.486Z,94778.98
2019-05-25T22:54:28.008Z,94783.28
2019-05-25T22:57:00.894Z,94788.20
2019-05-25T22:59:33.866Z,94788.27
2019-05-25T23:02:07.067Z,94784.44
2019-05-25T23:04:40.062Z,94785.55
2019-05-25T23:07:13.027Z,94789.26
2019-05-25T23:09:46.305Z,94788.31
2019-05-25T23:12:19.619Z,94783.76
2019-05-25T23:14:54.221Z,94787.47
2019-05-25T23:17:27.489Z,94781.55
2019-05-25T23:20:00.903Z,94788.31
2019-05-25T23:22:34.018Z,94786.27
2019-05-25T23:25:07.419Z,94786.28
2019-05-25T23:27:41.468Z,94789.28
2019-05-25T23:30:14.557Z,94796.36
2019-05-25T23:32:47.833Z,94788.95
2019-05-25T23:35:20.824Z,94793.40
2019-05-25T23:37:53.683Z,94798.52
2019-05-25T23:40:27.037Z,94797.84
2019-05-25T23:43:00.107Z,94796.41
2019-05-25T23:45:33.116Z,94801.99
2019-05-25T23:48:06.214Z,94796.21
2019-05-25T23:50:39.384Z,94797.77
2019-05-25T23:53:12.287Z,94800.12
2019-05-25T23:55:45.510Z,94800.64
2019-05-25T23:58:18.328Z,94798.59
